createdAt,value
2018-01-11T00:00:26.468Z,42.43
2018-01-11T00:02:55.737Z,39.77
2018-01-11T00:05:24.679Z,43.67
2018-01-11T00:07:52.991Z,48.97
2018-01-11T00:10:21.357Z,36.97
2018-01-11T00:12:49.701Z,41.17
2018-01-11T00:15:18.140Z,41.10
2018-01-11T00:17:46.955Z,42.33
2018-01-11T00:20:15.287Z,37.40
2018-01-11T00:22:43.660Z,37.57
2018-01-11T00:25:12.004Z,46.60
2018-01-11T00:27:40.317Z,34.83
2018-01-11T00:30:08.660Z,38.93
2018-01-11T00:32:37.075Z,32.80
2018-01-11T00:35:05.396Z,35.53
2018-01-11T00:37:33.707Z,30.40
2018-01-11T00:40:03.034Z,39.73
2018-01-11T00:42:31.345Z,30.63
2018-01-11T00:45:00.431Z,36.10
2018-01-11T00:47:29.172Z,32.63
2018-01-11T00:49:57.489Z,34.67
2018-01-11T00:52:25.853Z,31.87
2018-01-11T00:54:54.240Z,38.53
2018-01-11T00:57:22.559Z,36.13
2018-01-11T00:59:50.863Z,36.00
2018-01-11T01:02:19.312Z,26.27
2018-01-11T01:04:47.623Z,33.87
2018-01-11T01:07:15.952Z,30.23
2018-01-11T01:09:45.113Z,28.63
2018-01-11T01:12:13.508Z,34.73
2018-01-11T01:14:41.867Z,28.30
2018-01-11T01:17:10.228Z,32.33
2018-01-11T01:19:38.544Z,31.83
2018-01-11T01:22:06.860Z,31.20
2018-01-11T01:24:35.223Z,27.90
2018-01-11T01:27:03.548Z,33.87
2018-01-11T01:29:32.278Z,30.87
2018-01-11T01:32:01.413Z,31.50
2018-01-11T01:34:29.719Z,34.10
2018-01-11T01:36:58.039Z,33.60
2018-01-11T01:39:26.416Z,32.37
2018-01-11T01:41:55.492Z,30.50
2018-01-11T01:44:23.798Z,30.43
2018-01-11T01:46:52.944Z,34.53
2018-01-11T01:49:21.335Z,34.77
2018-01-11T01:51:49.640Z,38.27
2018-01-11T01:54:18.860Z,41.67
2018-01-11T01:56:47.624Z,32.00
2018-01-11T01:59:16.706Z,30.63
2018-01-11T02:01:45.055Z,38.00
2018-01-11T02:04:13.356Z,41.87
2018-01-11T02:06:41.684Z,50.10
2018-01-11T02:09:11.300Z,46.03
2018-01-11T02:11:40.300Z,44.63
2018-01-11T02:14:09.549Z,48.60
2018-01-11T02:16:38.520Z,44.40
2018-01-11T02:19:07.720Z,50.47
2018-01-11T02:21:36.046Z,50.17
2018-01-11T02:24:05.128Z,56.27
2018-01-11T02:26:34.076Z,43.13
2018-01-11T02:31:43.579Z,64.30
2018-01-11T02:34:13.631Z,63.83
2018-01-11T02:36:42.239Z,56.17
2018-01-11T02:39:11.151Z,51.13
2018-01-11T02:41:39.575Z,58.63
2018-01-11T02:44:08.269Z,47.50
2018-01-11T02:46:36.891Z,49.67
2018-01-11T02:49:05.931Z,61.03
2018-01-11T02:51:34.248Z,69.20
2018-01-11T02:54:03.380Z,56.53
2018-01-11T02:56:32.472Z,62.07
2018-01-11T02:59:01.517Z,48.03
2018-01-11T03:01:29.883Z,52.73
2018-01-11T03:03:59.376Z,60.97
2018-01-11T03:06:28.010Z,61.22
2018-01-11T03:08:57.123Z,49.60
2018-01-11T03:11:26.207Z,49.00
2018-01-11T03:13:55.436Z,66.43
2018-01-11T03:16:23.770Z,75.33
2018-01-11T03:18:52.076Z,75.13
2018-01-11T03:21:20.511Z,61.83
2018-01-11T03:23:50.005Z,71.22
2018-01-11T03:26:19.083Z,69.07
2018-01-11T03:28:47.455Z,91.10
2018-01-11T03:31:16.528Z,70.73
2018-01-11T03:33:44.842Z,68.33
2018-01-11T03:36:13.287Z,70.20
2018-01-11T03:38:41.587Z,81.87
2018-01-11T03:41:09.909Z,72.25
2018-01-11T03:43:38.248Z,61.83
2018-01-11T03:46:06.560Z,67.10
2018-01-11T03:48:34.929Z,65.73
2018-01-11T03:51:03.227Z,57.90
2018-01-11T03:53:31.527Z,66.27
2018-01-11T03:55:59.975Z,80.17
2018-01-11T03:58:28.290Z,69.50
2018-01-11T04:00:56.603Z,76.80
2018-01-11T04:03:25.076Z,78.83
2018-01-11T04:05:53.396Z,75.55
2018-01-11T04:08:21.703Z,85.00
2018-01-11T04:10:50.804Z,66.67
2018-01-11T04:13:19.976Z,77.22
2018-01-11T04:15:48.346Z,93.43
2018-01-11T04:18:16.644Z,83.40
2018-01-11T04:20:44.963Z,91.18
2018-01-11T04:23:13.340Z,75.90
2018-01-11T04:25:42.091Z,79.03
2018-01-11T04:28:11.552Z,65.50
2018-01-11T04:30:39.943Z,81.27
2018-01-11T04:33:08.627Z,65.20
2018-01-11T04:35:36.939Z,79.68
2018-01-11T04:38:05.763Z,73.57
2018-01-11T04:40:34.809Z,57.73
2018-01-11T04:43:03.119Z,56.22
2018-01-11T04:45:31.499Z,62.53
2018-01-11T04:47:59.820Z,75.32
2018-01-11T04:50:28.680Z,68.75
2018-01-11T04:52:57.043Z,67.43
2018-01-11T04:55:25.363Z,71.05
2018-01-11T04:57:59.412Z,76.93
2018-01-11T05:00:28.564Z,75.53
2018-01-11T05:03:01.564Z,74.22
2018-01-11T05:05:29.871Z,80.18
2018-01-11T05:07:58.945Z,69.32
2018-01-11T05:10:27.296Z,80.82
2018-01-11T05:12:55.624Z,93.05
2018-01-11T05:15:24.796Z,73.87
2018-01-11T05:17:53.150Z,96.10
2018-01-11T05:20:21.476Z,97.75
2018-01-11T05:22:50.900Z,81.78
2018-01-11T05:25:20.043Z,100.70
2018-01-11T05:27:48.380Z,121.93
2018-01-11T05:30:16.743Z,102.72
2018-01-11T05:32:45.814Z,111.37
2018-01-11T05:35:14.859Z,92.82
2018-01-11T05:37:43.416Z,90.47
2018-01-11T05:40:12.331Z,84.47
2018-01-11T05:42:40.655Z,94.05
2018-01-11T05:45:09.023Z,98.07
2018-01-11T05:47:37.411Z,97.15
2018-01-11T05:50:06.392Z,95.43
2018-01-11T05:52:34.843Z,83.07
2018-01-11T05:55:03.963Z,88.62
2018-01-11T05:57:33.515Z,74.00
2018-01-11T06:00:01.843Z,82.63
2018-01-11T06:02:30.373Z,73.28
2018-01-11T06:04:59.044Z,98.95
2018-01-11T06:07:28.355Z,76.60
2018-01-11T06:09:57.660Z,97.90
2018-01-11T06:12:26.754Z,78.63
2018-01-11T06:14:55.769Z,104.33
2018-01-11T06:17:24.779Z,86.50
2018-01-11T06:19:53.109Z,95.80
2018-01-11T06:22:21.699Z,96.00
2018-01-11T06:24:50.079Z,100.45
2018-01-11T06:27:19.574Z,96.00
2018-01-11T06:29:48.028Z,165.77
2018-01-11T06:32:16.396Z,130.37
2018-01-11T06:34:44.719Z,167.87
2018-01-11T06:37:13.048Z,142.27
2018-01-11T06:39:41.799Z,125.80
2018-01-11T06:42:10.901Z,111.65
2018-01-11T06:44:39.981Z,137.33
2018-01-11T06:47:09.289Z,118.20
2018-01-11T06:49:37.797Z,135.00
2018-01-11T06:52:06.276Z,106.87
2018-01-11T06:54:34.607Z,128.55
2018-01-11T06:57:02.988Z,106.33
2018-01-11T06:59:31.383Z,113.90
2018-01-11T07:02:00.306Z,124.07
2018-01-11T07:04:28.671Z,120.00
2018-01-11T07:06:57.727Z,96.90
2018-01-11T07:09:26.215Z,106.30
2018-01-11T07:11:55.072Z,90.37
2018-01-11T07:14:23.498Z,92.23
2018-01-11T07:16:52.492Z,104.90
2018-01-11T07:19:21.584Z,109.80
2018-01-11T07:21:49.948Z,112.32
2018-01-11T07:24:18.351Z,108.93
2018-01-11T07:26:47.194Z,110.60
2018-01-11T07:29:15.572Z,111.68
2018-01-11T07:31:43.928Z,117.03
2018-01-11T07:34:12.319Z,113.53
2018-01-11T07:36:41.428Z,105.60
2018-01-11T07:39:10.463Z,109.20
2018-01-11T07:41:38.881Z,127.05
2018-01-11T07:44:07.740Z,101.47
2018-01-11T07:46:36.061Z,111.25
2018-01-11T07:49:05.785Z,120.17
2018-01-11T07:51:34.100Z,85.23
2018-01-11T07:54:02.420Z,98.90
2018-01-11T07:56:30.772Z,94.17
2018-01-11T07:59:01.262Z,100.40
2018-01-11T08:01:30.252Z,124.28
2018-01-11T08:03:58.609Z,108.73
2018-01-11T08:06:26.919Z,113.73
2018-01-11T08:08:56.906Z,126.80
2018-01-11T08:11:25.208Z,145.50
2018-01-11T08:13:54.631Z,157.70
2018-01-11T08:16:23.089Z,148.50
2018-01-11T08:18:51.999Z,153.80
2018-01-11T08:21:20.922Z,142.90
2018-01-11T08:23:52.051Z,145.90
2018-01-11T08:26:22.175Z,177.83
2018-01-11T08:28:51.123Z,156.60
2018-01-11T08:31:21.823Z,146.02
2018-01-11T08:33:51.297Z,165.23
2018-01-11T08:36:19.837Z,151.20
2018-01-11T08:38:51.549Z,138.20
2018-01-11T08:41:22.645Z,140.87
2018-01-11T08:43:54.483Z,147.63
2018-01-11T08:46:23.168Z,131.33
2018-01-11T08:48:54.150Z,142.03
2018-01-11T08:51:23.320Z,154.17
2018-01-11T08:53:52.544Z,105.60
2018-01-11T08:56:23.951Z,107.57
2018-01-11T08:58:53.920Z,101.05
2018-01-11T09:01:26.517Z,88.37
2018-01-11T09:03:57.283Z,90.53
2018-01-11T09:06:26.336Z,88.67
2018-01-11T09:08:57.907Z,78.87
2018-01-11T09:11:27.657Z,86.97
2018-01-11T09:13:56.263Z,87.20
2018-01-11T09:16:29.311Z,68.23
2018-01-11T09:18:59.699Z,59.23
2018-01-11T09:21:30.839Z,42.50
2018-01-11T09:24:01.482Z,46.07
2018-01-11T09:26:30.608Z,41.83
2018-01-11T09:29:00.468Z,40.73
2018-01-11T09:31:28.953Z,37.90
2018-01-11T09:33:59.464Z,35.50
2018-01-11T09:36:30.081Z,29.03
2018-01-11T09:39:02.470Z,35.90
2018-01-11T09:41:34.044Z,30.53
2018-01-11T09:44:05.005Z,31.23
2018-01-11T09:46:33.917Z,32.90
2018-01-11T09:49:05.094Z,27.30
2018-01-11T09:51:35.448Z,31.53
2018-01-11T09:54:05.812Z,29.70
2018-01-11T09:56:36.149Z,30.20
2018-01-11T09:59:07.735Z,27.90
2018-01-11T10:01:38.833Z,30.83
2018-01-11T10:04:09.613Z,32.67
2018-01-11T10:06:38.409Z,33.87
2018-01-11T10:09:06.805Z,21.57
2018-01-11T10:11:36.395Z,27.17
2018-01-11T10:14:05.738Z,23.10
2018-01-11T10:16:38.546Z,23.60
2018-01-11T10:19:08.523Z,25.13
2018-01-11T10:21:37.755Z,26.93
2018-01-11T10:24:06.545Z,30.60
2018-01-11T10:26:36.912Z,33.23
2018-01-11T10:29:06.580Z,42.00
2018-01-11T10:31:35.072Z,34.30
2018-01-11T10:34:04.867Z,36.60
2018-01-11T10:36:33.512Z,35.80
2018-01-11T10:39:02.115Z,31.60
2018-01-11T10:41:31.224Z,37.20
2018-01-11T10:44:01.299Z,34.80
2018-01-11T10:46:31.072Z,31.60
2018-01-11T10:48:59.805Z,29.53
2018-01-11T10:51:29.340Z,32.10
2018-01-11T10:53:57.922Z,30.67
2018-01-11T10:56:27.507Z,27.33
2018-01-11T10:58:56.181Z,29.40
2018-01-11T11:01:30.864Z,23.03
2018-01-11T11:04:00.414Z,30.60
2018-01-11T11:06:30.011Z,25.97
2018-01-11T11:08:58.711Z,21.17
2018-01-11T11:11:27.517Z,20.87
2018-01-11T11:13:57.155Z,23.60
2018-01-11T11:16:25.681Z,20.70
2018-01-11T11:18:55.323Z,29.77
2018-01-11T11:21:25.213Z,23.17
2018-01-11T11:23:53.894Z,26.53
2018-01-11T11:26:22.694Z,23.43
2018-01-11T11:28:51.114Z,23.43
2018-01-11T11:31:20.835Z,26.80
2018-01-11T11:33:49.936Z,23.20
2018-01-11T11:36:18.448Z,29.23
2018-01-11T11:38:48.138Z,19.07
2018-01-11T11:41:17.917Z,27.57
2018-01-11T11:43:47.124Z,22.13
2018-01-11T11:46:16.078Z,19.63
2018-01-11T11:48:46.342Z,25.03
2018-01-11T11:51:15.122Z,31.50
2018-01-11T11:53:43.778Z,23.03
2018-01-11T11:56:12.425Z,23.43
2018-01-11T11:58:41.818Z,20.97
2018-01-11T12:01:11.689Z,19.90
2018-01-11T12:03:40.634Z,30.00
2018-01-11T12:06:09.531Z,17.80
2018-01-11T12:08:38.063Z,26.37
2018-01-11T12:11:08.208Z,20.77
2018-01-11T12:13:38.139Z,23.10
2018-01-11T12:16:07.521Z,21.13
2018-01-11T12:18:37.060Z,23.07
2018-01-11T12:21:06.965Z,25.30
2018-01-11T12:23:35.551Z,21.50
2018-01-11T12:26:04.208Z,24.07
2018-01-11T12:28:33.246Z,25.03
2018-01-11T12:31:02.198Z,22.47
2018-01-11T12:33:31.943Z,25.30
2018-01-11T12:36:01.092Z,28.37
2018-01-11T12:38:29.531Z,30.27
2018-01-11T12:40:58.997Z,25.60
2018-01-11T12:43:27.903Z,31.80
2018-01-11T12:45:56.350Z,29.40
2018-01-11T12:48:25.049Z,32.40
2018-01-11T12:50:53.452Z,30.30
2018-01-11T12:53:22.061Z,29.70
2018-01-11T12:55:51.155Z,31.20
2018-01-11T12:58:19.683Z,31.90
2018-01-11T13:00:48.202Z,27.87
2018-01-11T13:03:16.765Z,25.23
2018-01-11T13:05:45.354Z,24.37
2018-01-11T13:08:13.924Z,26.70
2018-01-11T13:10:43.465Z,24.50
2018-01-11T13:13:13.480Z,22.70
2018-01-11T13:15:41.878Z,21.97
2018-01-11T13:18:11.855Z,19.00
2018-01-11T13:20:40.716Z,18.20
2018-01-11T13:23:09.243Z,14.13
2018-01-11T13:25:37.868Z,16.93
2018-01-11T13:28:07.260Z,16.50
2018-01-11T13:30:37.529Z,12.60
2018-01-11T13:33:05.863Z,8.47
2018-01-11T13:35:34.229Z,9.10
2018-01-11T13:38:02.585Z,11.13
2018-01-11T13:40:30.886Z,10.00
2018-01-11T13:42:59.184Z,7.07
2018-01-11T13:45:27.532Z,10.90
2018-01-11T13:47:55.862Z,6.07
2018-01-11T13:50:24.164Z,4.90
2018-01-11T13:52:52.501Z,6.20
2018-01-11T13:55:20.803Z,8.53
2018-01-11T13:57:49.127Z,6.73
2018-01-11T14:00:17.484Z,5.60
2018-01-11T14:02:45.832Z,5.90
2018-01-11T14:05:14.141Z,9.33
2018-01-11T14:07:43.241Z,6.67
2018-01-11T14:10:12.247Z,6.33
2018-01-11T14:12:41.377Z,7.77
2018-01-11T14:15:10.547Z,5.23
2018-01-11T14:17:39.619Z,5.77
2018-01-11T14:20:07.976Z,6.07
2018-01-11T14:22:36.324Z,7.77
2018-01-11T14:25:04.862Z,8.57
2018-01-11T14:27:33.158Z,8.50
2018-01-11T14:30:02.244Z,8.00
2018-01-11T14:32:30.721Z,6.37
2018-01-11T14:34:59.032Z,10.60
2018-01-11T14:37:28.655Z,6.93
2018-01-11T14:39:56.963Z,7.50
2018-01-11T14:42:25.272Z,8.57
2018-01-11T14:44:54.607Z,6.57
2018-01-11T14:47:22.906Z,6.50
2018-01-11T14:49:51.204Z,8.60
2018-01-11T14:52:19.663Z,8.13
2018-01-11T14:54:47.969Z,8.50
2018-01-11T14:57:16.317Z,11.43
2018-01-11T14:59:44.668Z,10.70
2018-01-11T15:02:13.229Z,7.83
2018-01-11T15:04:41.608Z,12.03
2018-01-11T15:07:10.034Z,9.63
2018-01-11T15:09:38.335Z,14.10
2018-01-11T15:12:06.915Z,13.40
2018-01-11T15:14:35.285Z,14.60
2018-01-11T15:17:03.601Z,13.50
2018-01-11T15:19:31.899Z,13.97
2018-01-11T15:22:00.540Z,18.70
2018-01-11T15:24:28.847Z,14.90
2018-01-11T15:26:57.981Z,17.77
2018-01-11T15:29:26.358Z,18.87
2018-01-11T15:31:54.676Z,15.23
2018-01-11T15:34:23.799Z,17.43
2018-01-11T15:36:52.876Z,21.23
2018-01-11T15:39:21.208Z,25.70
2018-01-11T15:41:49.660Z,12.13
2018-01-11T15:44:17.981Z,17.17
2018-01-11T15:46:46.299Z,13.80
2018-01-11T15:49:14.652Z,17.60
2018-01-11T15:51:42.955Z,19.33
2018-01-11T15:54:11.341Z,19.30
2018-01-11T15:56:39.980Z,18.20
2018-01-11T15:59:08.291Z,20.03
2018-01-11T16:01:36.821Z,23.07
2018-01-11T16:04:05.314Z,21.80
2018-01-11T16:06:33.600Z,18.47
2018-01-11T16:09:03.167Z,24.57
2018-01-11T16:11:31.485Z,19.00
2018-01-11T16:14:00.108Z,21.97
2018-01-11T16:16:30.119Z,18.27
2018-01-11T16:18:58.864Z,17.67
2018-01-11T16:21:27.220Z,23.00
2018-01-11T16:23:55.529Z,29.53
2018-01-11T16:26:26.008Z,27.07
2018-01-11T16:28:55.066Z,21.27
2018-01-11T16:31:23.728Z,26.20
2018-01-11T16:33:54.143Z,23.33
2018-01-11T16:36:22.532Z,27.07
2018-01-11T16:38:50.847Z,24.10
2018-01-11T16:41:19.191Z,22.93
2018-01-11T16:43:48.115Z,21.20
2018-01-11T16:46:16.599Z,29.20
2018-01-11T16:48:44.976Z,25.97
2018-01-11T16:51:13.341Z,28.70
2018-01-11T16:53:42.200Z,29.53
2018-01-11T16:56:11.343Z,29.50
2018-01-11T16:58:40.227Z,21.57
2018-01-11T17:01:08.776Z,26.80
2018-01-11T17:03:37.971Z,28.33
2018-01-11T17:06:06.631Z,30.27
2018-01-11T17:08:35.187Z,33.87
2018-01-11T17:11:04.148Z,29.27
2018-01-11T17:13:33.220Z,28.17
2018-01-11T17:16:01.611Z,33.43
2018-01-11T17:18:30.495Z,25.77
2018-01-11T17:20:58.799Z,28.40
2018-01-11T17:23:27.108Z,32.50
2018-01-11T17:25:55.496Z,31.23
2018-01-11T17:28:24.604Z,34.23
2018-01-11T17:30:52.916Z,34.67
2018-01-11T17:33:21.872Z,27.90
2018-01-11T17:35:50.241Z,28.60
2018-01-11T17:38:19.348Z,30.60
2018-01-11T17:40:48.344Z,28.17
2018-01-11T17:43:17.385Z,28.87
2018-01-11T17:45:45.888Z,35.00
2018-01-11T17:48:14.205Z,33.13
2018-01-11T17:50:42.522Z,31.87
2018-01-11T17:53:10.882Z,31.70
2018-01-11T17:55:39.211Z,34.77
2018-01-11T17:58:07.523Z,34.53
2018-01-11T18:00:35.892Z,30.10
2018-01-11T18:03:04.208Z,34.30
2018-01-11T18:05:32.524Z,32.97
2018-01-11T18:08:01.465Z,34.93
2018-01-11T18:10:31.367Z,30.03
2018-01-11T18:12:59.690Z,29.53
2018-01-11T18:15:28.527Z,34.83
2018-01-11T18:17:57.092Z,42.60
2018-01-11T18:20:25.924Z,33.97
2018-01-11T18:22:54.771Z,32.30
2018-01-11T18:25:23.104Z,29.47
2018-01-11T18:27:51.503Z,34.13
2018-01-11T18:30:19.932Z,38.37
2018-01-11T18:32:48.684Z,35.53
2018-01-11T18:35:18.777Z,34.83
2018-01-11T18:37:48.004Z,37.80
2018-01-11T18:40:17.115Z,33.70
2018-01-11T18:42:45.415Z,32.87
2018-01-11T18:45:14.284Z,37.80
2018-01-11T18:47:47.788Z,32.97
2018-01-11T18:50:16.518Z,32.77
2018-01-11T18:52:44.983Z,41.73
2018-01-11T18:55:13.288Z,43.40
2018-01-11T18:57:41.695Z,38.57
2018-01-11T19:00:10.005Z,36.50
2018-01-11T19:02:38.323Z,37.87
2018-01-11T19:05:06.743Z,37.60
2018-01-11T19:07:35.053Z,38.07
2018-01-11T19:10:03.359Z,37.87
2018-01-11T19:12:31.867Z,42.57
2018-01-11T19:15:01.465Z,41.93
2018-01-11T19:17:29.800Z,45.00
2018-01-11T19:19:58.145Z,47.53
2018-01-11T19:22:26.460Z,48.60
2018-01-11T19:24:54.773Z,47.70
2018-01-11T19:27:23.149Z,53.73
2018-01-11T19:29:51.456Z,50.50
2018-01-11T19:32:20.542Z,38.27
2018-01-11T19:34:49.644Z,36.93
2018-01-11T19:37:18.470Z,34.77
2018-01-11T19:39:46.994Z,35.33
2018-01-11T19:42:15.650Z,38.50
2018-01-11T19:44:44.783Z,33.50
2018-01-11T19:47:13.732Z,31.17
2018-01-11T19:49:42.347Z,39.87
2018-01-11T19:52:10.671Z,41.50
2018-01-11T19:54:39.029Z,42.50
2018-01-11T19:57:07.343Z,38.90
2018-01-11T19:59:35.855Z,51.37
2018-01-11T20:02:05.168Z,44.03
2018-01-11T20:04:34.251Z,49.83
2018-01-11T20:07:03.355Z,47.27
2018-01-11T20:09:32.454Z,67.47
2018-01-11T20:12:00.895Z,42.93
2018-01-11T20:14:29.923Z,45.30
2018-01-11T20:16:59.021Z,54.83
2018-01-11T20:19:27.344Z,50.90
2018-01-11T20:21:55.652Z,51.60
2018-01-11T20:24:24.003Z,53.77
2018-01-11T20:26:53.385Z,41.23
2018-01-11T20:29:21.847Z,47.90
2018-01-11T20:31:50.575Z,46.10
2018-01-11T20:34:20.332Z,47.90
2018-01-11T20:36:51.020Z,43.20
2018-01-11T20:39:19.968Z,45.10
2018-01-11T20:41:48.320Z,40.17
2018-01-11T20:44:17.265Z,39.30
2018-01-11T20:46:45.576Z,37.87
2018-01-11T20:49:14.050Z,36.43
2018-01-11T20:51:42.804Z,35.23
2018-01-11T20:54:11.909Z,41.17
2018-01-11T20:56:40.415Z,43.23
2018-01-11T20:59:09.072Z,36.80
2018-01-11T21:01:38.110Z,40.53
2018-01-11T21:04:06.484Z,38.97
2018-01-11T21:06:35.706Z,31.40
2018-01-11T21:09:05.376Z,36.67
2018-01-11T21:11:34.139Z,38.33
2018-01-11T21:14:03.319Z,29.50
2018-01-11T21:16:32.646Z,31.90
2018-01-11T21:19:01.823Z,35.20
2018-01-11T21:21:31.151Z,40.80
2018-01-11T21:24:00.304Z,38.87
2018-01-11T21:26:29.317Z,33.87
2018-01-11T21:28:58.399Z,32.10
2018-01-11T21:31:27.596Z,38.20
2018-01-11T21:33:56.140Z,31.77
2018-01-11T21:36:25.782Z,36.20
2018-01-11T21:38:54.100Z,36.27
2018-01-11T21:41:22.452Z,33.43
2018-01-11T21:43:50.843Z,37.00
2018-01-11T21:46:19.710Z,29.17
2018-01-11T21:48:48.030Z,33.50
2018-01-11T21:51:16.363Z,41.27
2018-01-11T21:53:45.356Z,35.27
2018-01-11T21:56:13.808Z,35.57
2018-01-11T21:58:42.487Z,37.97
2018-01-11T22:01:11.236Z,33.10
2018-01-11T22:03:39.561Z,39.07
2018-01-11T22:06:07.929Z,39.00
2018-01-11T22:08:36.277Z,36.67
2018-01-11T22:11:05.059Z,31.23
2018-01-11T22:13:34.209Z,41.93
2018-01-11T22:16:02.546Z,42.13
2018-01-11T22:18:30.852Z,37.17
2018-01-11T22:20:59.213Z,35.90
2018-01-11T22:23:28.044Z,38.87
2018-01-11T22:25:57.125Z,37.23
2018-01-11T22:28:25.484Z,31.27
2018-01-11T22:30:53.792Z,40.20
2018-01-11T22:33:22.099Z,36.00
2018-01-11T22:35:50.470Z,35.43
2018-01-11T22:38:19.545Z,35.03
2018-01-11T22:40:48.256Z,40.83
2018-01-11T22:43:17.323Z,40.03
2018-01-11T22:45:45.628Z,43.40
2018-01-11T22:48:14.765Z,39.23
2018-01-11T22:50:43.131Z,33.03
2018-01-11T22:53:11.445Z,45.93
2018-01-11T22:55:40.367Z,37.73
2018-01-11T22:58:08.693Z,38.10
2018-01-11T23:00:37.008Z,38.13
2018-01-11T23:03:05.436Z,39.23
2018-01-11T23:05:33.791Z,40.33
2018-01-11T23:08:02.104Z,43.57
2018-01-11T23:10:30.649Z,37.90
2018-01-11T23:12:59.747Z,35.40
2018-01-11T23:15:28.372Z,36.60
2018-01-11T23:17:56.736Z,38.93
2018-01-11T23:20:25.047Z,34.77
2018-01-11T23:22:53.352Z,42.50
2018-01-11T23:25:21.983Z,40.53
2018-01-11T23:27:51.051Z,35.70
2018-01-11T23:30:20.724Z,41.43
2018-01-11T23:32:49.076Z,39.37
2018-01-11T23:35:18.309Z,42.83
2018-01-11T23:37:46.831Z,41.13
2018-01-11T23:40:15.199Z,38.77
2018-01-11T23:42:43.546Z,39.70
2018-01-11T23:45:11.872Z,47.20
2018-01-11T23:47:40.224Z,47.73
2018-01-11T23:50:08.527Z,34.20
2018-01-11T23:52:36.827Z,44.97
2018-01-11T23:55:05.226Z,37.60
2018-01-11T23:57:33.561Z,42.93
